Time;durP1;ratioP1;P1;durP2;ratioP2;P2;SDS_P1;SDS_P2;PMS_P1;PMS_P2;Temp;Humidity;BMP_temperature;BMP_pressure;BME280_temperature;BME280_humidity;BME280_pressure;Samples;Min_cycle;Max_cycle;Signal;HPM_P1;HPM_P2
2023/08/24 00:02:24;;;;;;;9.63;7.40;;;18.10;99.90;;;;;;6283882;22;20038;-88
2023/08/24 00:05:13;;;;;;;10.63;7.47;;;18.10;99.90;;;;;;6308425;22;20087;-89
2023/08/24 00:08:06;;;;;;;11.35;7.60;;;18.10;99.90;;;;;;6286742;22;20027;-89
2023/08/24 00:10:56;;;;;;;8.65;7.22;;;18.00;1.00;;;;;;6287327;22;20034;-89
2023/08/24 00:13:53;;;;;;;10.68;8.18;;;17.90;99.90;;;;;;6311889;22;20023;-86
2023/08/24 00:16:40;;;;;;;11.23;7.43;;;17.80;99.90;;;;;;6318529;22;20102;-88
2023/08/24 00:19:30;;;;;;;12.18;7.13;;;17.70;1.00;;;;;;6297943;22;20024;-89
2023/08/24 00:22:18;;;;;;;12.15;7.60;;;17.70;99.90;;;;;;6311872;22;20062;-89
2023/08/24 00:25:06;;;;;;;10.10;7.35;;;17.90;99.90;;;;;;6284682;22;20019;-88
2023/08/24 00:27:54;;;;;;;9.20;7.70;;;17.90;99.90;;;;;;6286809;22;20089;-87
2023/08/24 00:30:43;;;;;;;11.95;8.00;;;17.90;99.90;;;;;;6284580;22;20030;-90
2023/08/24 00:33:30;;;;;;;12.50;7.93;;;17.70;40.20;;;;;;6287515;22;20031;-88
2023/08/24 00:36:20;;;;;;;15.50;8.35;;;17.70;1.00;;;;;;6284886;22;20027;-87
2023/08/24 00:39:15;;;;;;;10.32;8.02;;;17.70;1.00;;;;;;6308407;22;20077;-89
2023/08/24 00:42:05;;;;;;;12.57;8.30;;;17.70;59.10;;;;;;6287400;22;20092;-88
2023/08/24 00:44:55;;;;;;;14.00;8.90;;;17.70;89.60;;;;;;6286782;22;20019;-88
2023/08/24 00:47:47;;;;;;;10.00;8.43;;;17.60;17.60;;;;;;6311123;22;20033;-88
2023/08/24 00:50:35;;;;;;;13.25;9.10;;;17.70;1.00;;;;;;6310488;22;20019;-89
2023/08/24 00:53:27;;;;;;;13.75;8.57;;;17.60;1.00;;;;;;6289456;22;20111;-88
2023/08/24 00:56:24;;;;;;;9.93;8.53;;;17.60;99.90;;;;;;6308851;22;20030;-89
2023/08/24 00:59:12;;;;;;;13.30;8.20;;;17.40;99.90;;;;;;6289694;22;20041;-89
2023/08/24 01:01:59;;;;;;;12.82;9.18;;;17.30;99.90;;;;;;6296485;22;20027;-87
2023/08/24 01:04:48;;;;;;;15.10;9.45;;;17.20;99.90;;;;;;6324632;22;20033;-88
2023/08/24 01:07:40;;;;;;;12.95;8.95;;;17.10;99.90;;;;;;6303723;22;20465;-88
2023/08/24 01:10:38;;;;;;;13.07;9.30;;;17.20;1.00;;;;;;6326948;22;20019;-86
2023/08/24 01:14:04;;;;;;;10.13;9.13;;;17.10;1.00;;;;;;6311817;22;20226;-82
2023/08/24 01:17:00;;;;;;;18.48;9.68;;;17.00;99.90;;;;;;6309660;22;20114;-81
2023/08/24 01:19:53;;;;;;;14.10;10.23;;;16.90;99.90;;;;;;6310693;22;20023;-88
2023/08/24 01:22:56;;;;;;;13.32;9.68;;;16.90;1.00;;;;;;6329270;22;20034;-89
2023/08/24 01:25:55;;;;;;;14.23;10.53;;;16.80;99.90;;;;;;6305990;22;20007;-86
2023/08/24 01:28:47;;;;;;;13.45;10.48;;;16.70;99.90;;;;;;6306820;22;20046;-87
2023/08/24 01:31:35;;;;;;;16.35;10.38;;;16.70;99.90;;;;;;6321736;22;20023;-87
2023/08/24 01:34:22;;;;;;;12.80;10.35;;;16.60;99.90;;;;;;6323249;22;20031;-87
2023/08/24 01:37:10;;;;;;;16.52;9.82;;;16.60;99.90;;;;;;6321919;22;20031;-85
2023/08/24 01:40:17;;;;;;;11.68;9.23;;;16.70;99.90;;;;;;6321013;22;20027;-88
2023/08/24 01:43:06;;;;;;;13.60;10.00;;;16.80;99.90;;;;;;6319627;22;20034;-86
2023/08/24 01:45:58;;;;;;;10.65;9.55;;;16.80;99.90;;;;;;6296215;22;20023;-87
2023/08/24 01:48:47;;;;;;;15.45;9.63;;;16.80;99.90;;;;;;6299893;22;20023;-87
2023/08/24 01:51:35;;;;;;;10.13;9.00;;;16.80;99.90;;;;;;6295087;22;20034;-86
2023/08/24 01:54:22;;;;;;;13.75;9.95;;;16.80;99.90;;;;;;6318923;22;20027;-87
2023/08/24 01:57:12;;;;;;;10.85;8.95;;;16.80;99.90;;;;;;6297893;22;20027;-86
2023/08/24 01:59:59;;;;;;;11.60;9.43;;;16.70;99.90;;;;;;6295512;22;20019;-86
2023/08/24 02:02:47;;;;;;;14.90;10.77;;;16.60;99.90;;;;;;6319988;22;20023;-86
2023/08/24 02:05:40;;;;;;;13.35;11.35;;;16.70;99.90;;;;;;6296626;22;20339;-88
2023/08/24 02:08:38;;;;;;;11.32;9.75;;;16.80;99.90;;;;;;6298297;22;20026;-89
2023/08/24 02:11:25;;;;;;;13.93;9.40;;;16.90;99.90;;;;;;6292499;22;20365;-87
2023/08/24 02:14:15;;;;;;;15.02;9.55;;;16.90;1.00;;;;;;6312608;22;20106;-87
2023/08/24 02:17:05;;;;;;;15.45;10.23;;;16.90;99.90;;;;;;6311802;22;20035;-88
2023/08/24 02:19:57;;;;;;;16.88;9.98;;;16.90;99.90;;;;;;6295874;22;20023;-88
2023/08/24 02:22:44;;;;;;;17.95;11.32;;;16.80;1.00;;;;;;6297026;22;20084;-86
2023/08/24 02:25:34;;;;;;;17.33;10.25;;;16.70;6.00;;;;;;6295019;22;20019;-87
2023/08/24 02:28:21;;;;;;;11.18;9.52;;;16.70;99.90;;;;;;6294548;22;20023;-86
2023/08/24 02:31:09;;;;;;;15.32;11.25;;;16.60;99.90;;;;;;6315508;22;20046;-88
2023/08/24 02:34:02;;;;;;;16.33;10.98;;;16.60;99.90;;;;;;6313771;22;20026;-87
2023/08/24 02:36:56;;;;;;;13.95;11.35;;;16.60;99.90;;;;;;6298154;22;20102;-88
2023/08/24 02:39:43;;;;;;;13.70;9.75;;;16.50;99.90;;;;;;6317954;22;20027;-88
2023/08/24 02:42:35;;;;;;;19.77;9.90;;;16.60;99.90;;;;;;6321792;22;20041;-88
2023/08/24 02:45:22;;;;;;;12.40;9.32;;;16.80;99.90;;;;;;6275305;22;20027;-87
2023/08/24 02:48:10;;;;;;;15.23;10.23;;;16.90;11.60;;;;;;6321445;22;20038;-86
2023/08/24 02:51:03;;;;;;;14.73;9.98;;;16.90;1.00;;;;;;6313232;22;20015;-87
2023/08/24 02:53:53;;;;;;;12.38;9.02;;;17.00;99.90;;;;;;6288680;22;20046;-88
2023/08/24 02:56:40;;;;;;;16.70;9.60;;;17.10;4.10;;;;;;6308881;22;20438;-87
2023/08/24 02:59:27;;;;;;;11.65;9.05;;;17.10;99.90;;;;;;6285311;22;20027;-88
2023/08/24 03:02:14;;;;;;;14.60;9.27;;;17.10;1.00;;;;;;6287691;22;20023;-88
2023/08/24 03:05:05;;;;;;;14.63;8.63;;;17.20;1.00;;;;;;6311420;22;20033;-86
2023/08/24 03:07:54;;;;;;;14.90;9.05;;;17.30;1.00;;;;;;6314730;22;20023;-86
2023/08/24 03:10:44;;;;;;;14.55;8.93;;;17.30;99.90;;;;;;6308899;22;20315;-85
2023/08/24 03:13:36;;;;;;;12.27;8.70;;;17.30;99.90;;;;;;6292710;22;20107;-86
2023/08/24 03:16:23;;;;;;;11.68;8.75;;;17.10;1.00;;;;;;6316229;22;20031;-87
2023/08/24 03:19:14;;;;;;;18.10;10.88;;;17.00;99.90;;;;;;6314084;22;20114;-85
2023/08/24 03:22:04;;;;;;;15.52;9.77;;;16.90;99.90;;;;;;6311243;22;20054;-87
2023/08/24 03:24:53;;;;;;;12.75;9.68;;;16.80;1.00;;;;;;6311811;22;20062;-85
2023/08/24 03:27:45;;;;;;;15.45;10.15;;;16.80;99.90;;;;;;6310289;22;20378;-88
2023/08/24 03:30:33;;;;;;;13.98;10.88;;;16.70;99.90;;;;;;6284824;22;20373;-87
2023/08/24 03:33:24;;;;;;;12.45;9.75;;;16.70;99.90;;;;;;6288183;22;20027;-88
2023/08/24 03:36:16;;;;;;;14.77;10.07;;;16.60;99.90;;;;;;6285932;22;20034;-88
2023/08/24 03:39:06;;;;;;;14.13;10.90;;;16.70;99.90;;;;;;6284590;22;20027;-88
2023/08/24 03:41:58;;;;;;;11.50;10.30;;;16.60;48.20;;;;;;6305496;22;20027;-88
2023/08/24 03:44:50;;;;;;;15.43;11.73;;;16.50;99.90;;;;;;6286667;22;20026;-88
2023/08/24 03:47:39;;;;;;;12.77;10.90;;;16.60;99.90;;;;;;6308052;22;20030;-88
2023/08/24 03:50:31;;;;;;;13.07;11.20;;;16.60;99.90;;;;;;6286928;22;20027;-89
2023/08/24 03:53:19;;;;;;;10.93;8.57;;;16.60;99.90;;;;;;6282713;22;20034;-88
2023/08/24 03:56:06;;;;;;;13.02;10.50;;;16.70;99.90;;;;;;6282138;22;20039;-88
2023/08/24 03:58:55;;;;;;;11.05;9.90;;;16.70;99.90;;;;;;6283766;22;20106;-88
2023/08/24 04:01:43;;;;;;;15.10;10.50;;;16.80;99.90;;;;;;6282355;22;20337;-88
2023/08/24 04:04:30;;;;;;;14.77;10.75;;;16.80;99.90;;;;;;6305236;22;20023;-88
2023/08/24 04:07:22;;;;;;;13.27;9.63;;;16.90;99.90;;;;;;6307615;22;20083;-87
2023/08/24 04:10:09;;;;;;;15.20;10.00;;;16.90;99.90;;;;;;6284330;22;20031;-86
2023/08/24 04:12:57;;;;;;;18.98;10.55;;;16.90;99.90;;;;;;6305217;22;20023;-87
2023/08/24 04:15:46;;;;;;;12.23;8.90;;;16.90;99.90;;;;;;6308632;22;20319;-88
2023/08/24 04:18:34;;;;;;;9.75;8.80;;;17.00;99.90;;;;;;6286937;22;20030;-82
2023/08/24 04:21:24;;;;;;;15.65;9.88;;;17.00;87.80;;;;;;6319213;22;20035;-86
2023/08/24 04:24:11;;;;;;;10.35;9.18;;;16.90;65.20;;;;;;6292967;22;20050;-89
2023/08/24 04:26:58;;;;;;;11.85;8.75;;;16.90;39.10;;;;;;6308339;22;20023;-88
2023/08/24 04:29:45;;;;;;;11.80;8.95;;;16.90;23.30;;;;;;6284836;22;20027;-88
2023/08/24 04:32:33;;;;;;;15.68;9.05;;;17.00;1.00;;;;;;6283721;22;20031;-90
2023/08/24 04:35:25;;;;;;;12.23;9.07;;;16.90;99.90;;;;;;6286259;22;20023;-92
2023/08/24 04:38:14;;;;;;;12.20;8.68;;;16.90;99.90;;;;;;6305988;22;20084;-91
2023/08/24 04:41:07;;;;;;;10.10;9.05;;;16.80;99.90;;;;;;6307594;22;20020;-92
2023/08/24 04:43:54;;;;;;;;;;;16.70;99.90;;;;;;6285756;22;20024;-90
2023/08/24 04:46:42;;;;;;;10.35;8.48;;;16.70;99.90;;;;;;6307009;22;20332;-92
2023/08/24 04:49:37;;;;;;;15.95;10.45;;;16.70;1.00;;;;;;6307554;22;20038;-89
2023/08/24 04:52:24;;;;;;;12.85;10.90;;;16.70;96.60;;;;;;6306680;22;20023;-89
2023/08/24 04:55:11;;;;;;;12.18;10.63;;;16.70;99.90;;;;;;6305751;22;20046;-90
2023/08/24 04:58:01;;;;;;;16.08;11.68;;;16.90;99.90;;;;;;6286090;22;20038;-90
2023/08/24 05:00:49;;;;;;;13.60;10.55;;;16.90;99.90;;;;;;6309098;22;20023;-88
2023/08/24 05:03:38;;;;;;;14.02;11.18;;;17.00;80.20;;;;;;6309419;22;20077;-87
2023/08/24 05:06:26;;;;;;;20.27;11.48;;;17.10;90.10;;;;;;6284388;22;20019;-86
2023/08/24 05:09:14;;;;;;;15.00;9.95;;;17.10;99.90;;;;;;6308751;22;20461;-90
2023/08/24 05:12:01;;;;;;;11.10;9.75;;;17.20;99.90;;;;;;6306271;22;20338;-88
2023/08/24 05:14:50;;;;;;;14.63;10.43;;;17.20;99.90;;;;;;6288347;22;20037;-89
2023/08/24 05:17:38;;;;;;;16.05;11.13;;;17.20;99.90;;;;;;6285303;22;20034;-90
2023/08/24 05:20:28;;;;;;;17.95;9.95;;;17.30;99.90;;;;;;6286241;22;20027;-88
2023/08/24 05:23:15;;;;;;;10.95;9.38;;;17.40;31.40;;;;;;6306741;22;20202;-90
2023/08/24 05:26:05;;;;;;;17.45;9.70;;;17.50;1.00;;;;;;6285381;22;20102;-89
2023/08/24 05:28:52;;;;;;;10.48;9.48;;;17.60;1.00;;;;;;6283706;22;20037;-92
2023/08/24 05:31:40;;;;;;;17.33;10.07;;;17.70;1.00;;;;;;6309062;22;20108;-88
2023/08/24 05:34:27;;;;;;;12.30;9.20;;;17.80;99.90;;;;;;6306687;22;20402;-91
2023/08/24 05:37:16;;;;;;;10.57;8.90;;;17.90;99.90;;;;;;6285664;22;20299;-91
2023/08/24 05:40:06;;;;;;;11.50;9.10;;;18.00;54.60;;;;;;6308371;22;20122;-90
2023/08/24 05:42:56;;;;;;;10.05;8.57;;;18.10;99.90;;;;;;6284953;22;20027;-90
2023/08/24 05:45:46;;;;;;;10.90;7.80;;;18.30;92.40;;;;;;6309479;22;20051;-91
2023/08/24 05:48:36;;;;;;;13.82;8.65;;;18.50;99.90;;;;;;6284754;22;20039;-89
2023/08/24 05:51:26;;;;;;;11.18;8.35;;;18.70;99.90;;;;;;6309995;22;20436;-91
2023/08/24 05:54:17;;;;;;;11.85;8.68;;;18.80;65.00;;;;;;6285386;22;20023;-91
2023/08/24 05:57:07;;;;;;;13.27;9.05;;;18.80;99.90;;;;;;6287486;22;20046;-87
2023/08/24 05:59:56;;;;;;;12.15;8.98;;;18.80;99.90;;;;;;6291747;22;20046;-89
2023/08/24 06:02:48;;;;;;;14.20;9.20;;;18.90;1.00;;;;;;6297033;22;20110;-84
2023/08/24 06:05:40;;;;;;;15.73;9.73;;;19.00;99.90;;;;;;6318160;22;20023;-87
2023/08/24 06:08:32;;;;;;;11.45;9.02;;;19.10;99.90;;;;;;6299922;22;20031;-85
2023/08/24 06:11:22;;;;;;;14.32;9.73;;;19.20;99.90;;;;;;6296420;22;20106;-87
2023/08/24 06:14:09;;;;;;;16.38;9.73;;;19.30;35.60;;;;;;6292085;22;20023;-86
2023/08/24 06:16:56;;;;;;;15.25;9.30;;;19.40;1.00;;;;;;6285959;22;20287;-88
2023/08/24 06:19:43;;;;;;;15.25;9.48;;;19.50;1.00;;;;;;6286545;22;20042;-87
2023/08/24 06:22:31;;;;;;;14.25;10.00;;;19.60;99.90;;;;;;6290736;22;20027;-88
2023/08/24 06:25:23;;;;;;;18.25;10.77;;;19.60;99.90;;;;;;6312862;22;20090;-89
2023/08/24 06:28:15;;;;;;;15.02;10.77;;;19.60;99.90;;;;;;6307330;22;20102;-90
2023/08/24 06:31:04;;;;;;;14.20;9.00;;;19.60;99.90;;;;;;6289415;22;20027;-90
2023/08/24 06:33:53;;;;;;;18.20;7.57;;;19.80;99.90;;;;;;6288915;22;20035;-91
2023/08/24 06:36:51;;;;;;;14.10;7.53;;;19.90;1.00;;;;;;6284534;22;20039;-91
2023/08/24 06:40:45;;;;;;;15.55;7.75;;;20.10;1.00;;;;;;6293928;22;20038;-92
2023/08/24 06:43:46;;;;;;;10.10;7.30;;;20.20;99.90;;;;;;6227064;22;20019;-91
2023/08/24 06:46:55;;;;;;;9.43;6.72;;;20.40;99.90;;;;;;6289401;22;20249;-89
2023/08/24 06:49:42;;;;;;;8.82;6.88;;;20.50;99.90;;;;;;6311382;22;20027;-87
2023/08/24 07:00:33;;;;;;;10.82;5.85;;;20.90;99.90;;;;;;6120158;23;20028;-91
2023/08/24 07:03:40;;;;;;;10.98;5.93;;;20.90;94.40;;;;;;6135817;23;20120;-91
2023/08/24 07:06:31;;;;;;;12.05;6.50;;;21.00;99.90;;;;;;6181921;23;20333;-90
2023/08/24 07:09:20;;;;;;;11.77;6.35;;;21.00;99.90;;;;;;6185981;23;20053;-91
2023/08/24 07:12:10;;;;;;;9.73;5.72;;;21.10;51.00;;;;;;6175028;22;20052;-91
2023/08/24 07:15:21;;;;;;;10.10;6.40;;;21.20;1.00;;;;;;6305343;22;20786;-88
2023/08/24 07:18:14;;;;;;;9.40;6.20;;;21.30;1.00;;;;;;6304828;22;20039;-92
2023/08/24 07:21:01;;;;;;;10.23;6.43;;;21.20;1.00;;;;;;6305274;22;20027;-87
2023/08/24 07:23:49;;;;;;;9.45;5.80;;;21.10;1.00;;;;;;6282967;22;20026;-91
2023/08/24 07:26:41;;;;;;;6.90;5.18;;;21.30;1.00;;;;;;6281544;22;20481;-89
2023/08/24 07:29:29;;;;;;;9.95;5.95;;;21.80;1.00;;;;;;6284192;22;20019;-88
2023/08/24 07:32:19;;;;;;;8.63;5.55;;;22.20;99.90;;;;;;6306101;22;20030;-89
2023/08/24 07:35:09;;;;;;;8.43;5.47;;;22.40;99.90;;;;;;6281802;22;20031;-88
2023/08/24 07:38:00;;;;;;;9.77;6.13;;;22.60;99.90;;;;;;6283557;22;20050;-88
2023/08/24 07:40:48;;;;;;;12.20;6.22;;;22.80;99.90;;;;;;6303877;22;20039;-88
2023/08/24 07:43:35;;;;;;;7.78;5.30;;;22.90;99.90;;;;;;6283397;22;20019;-86
2023/08/24 07:46:27;;;;;;;12.60;6.13;;;22.90;62.70;;;;;;6280520;22;20103;-85
2023/08/24 07:49:14;;;;;;;6.05;5.13;;;23.00;24.10;;;;;;6284763;22;20019;-88
2023/08/24 07:52:02;;;;;;;5.55;4.57;;;23.50;1.00;;;;;;6281445;22;20326;-89
2023/08/24 07:54:52;;;;;;;6.05;3.80;;;24.20;1.00;;;;;;6282808;22;20030;-90
2023/08/24 07:57:42;;;;;;;9.00;4.00;;;25.20;1.00;;;;;;6285849;22;20051;-88
2023/08/24 08:00:29;;;;;;;8.57;4.50;;;26.10;99.90;;;;;;6283896;22;20039;-88
2023/08/24 08:03:20;;;;;;;9.73;4.30;;;26.40;99.90;;;;;;6289286;22;20023;-86
2023/08/24 08:06:08;;;;;;;11.35;4.40;;;26.30;99.90;;;;;;6307939;22;20030;-88
2023/08/24 08:08:58;;;;;;;8.23;4.25;;;26.30;99.90;;;;;;6290089;22;20019;-90
2023/08/24 08:11:54;;;;;;;7.07;4.22;;;26.30;99.90;;;;;;6287313;22;20061;-88
2023/08/24 08:15:07;;;;;;;6.07;3.80;;;26.80;99.90;;;;;;6295914;22;20027;-92
2023/08/24 08:17:55;;;;;;;9.88;3.70;;;28.00;99.90;;;;;;6290882;22;20031;-91
2023/08/24 08:20:58;;;;;;;6.07;3.33;;;28.60;99.90;;;;;;6331108;22;20023;-87
2023/08/24 08:23:48;;;;;;;7.57;3.25;;;29.40;99.90;;;;;;6328035;22;20098;-85
2023/08/24 08:26:40;;;;;;;8.63;3.25;;;29.60;99.90;;;;;;6304381;22;20038;-85
2023/08/24 08:29:27;;;;;;;7.85;4.15;;;30.00;99.90;;;;;;6305242;22;20024;-84
2023/08/24 08:32:22;;;;;;;8.82;3.38;;;30.30;99.90;;;;;;6283342;22;20098;-85
2023/08/24 08:35:09;;;;;;;6.68;3.10;;;30.90;99.90;;;;;;6283058;22;20030;-85
2023/08/24 08:38:01;;;;;;;7.13;3.60;;;31.20;99.90;;;;;;6283620;22;20084;-85
2023/08/24 08:40:52;;;;;;;9.63;3.67;;;31.40;88.00;;;;;;6284352;22;20027;-86
2023/08/24 08:43:42;;;;;;;5.82;3.10;;;30.90;67.60;;;;;;6284634;22;20019;-86
2023/08/24 08:46:35;;;;;;;4.65;3.30;;;31.20;78.20;;;;;;6304303;22;20027;-86
2023/08/24 08:49:25;;;;;;;4.65;3.30;;;31.30;60.50;;;;;;6284765;22;20081;-89
2023/08/24 08:52:12;;;;;;;3.60;3.05;;;31.50;44.50;;;;;;6282579;22;20015;-85
2023/08/24 08:55:06;;;;;;;6.53;3.28;;;31.30;45.60;;;;;;6307570;22;20464;-87
2023/08/24 08:58:00;;;;;;;8.85;3.30;;;31.20;44.50;;;;;;6285290;22;20061;-88
2023/08/24 09:00:50;;;;;;;10.05;3.42;;;32.10;39.70;;;;;;6306340;22;20129;-90
2023/08/24 09:03:39;;;;;;;7.68;3.50;;;32.20;28.30;;;;;;6306208;22;20106;-90
2023/08/24 09:06:29;;;;;;;4.65;3.20;;;32.90;29.90;;;;;;6282371;22;20505;-90
2023/08/24 09:09:25;;;;;;;7.07;3.45;;;33.10;19.30;;;;;;6283936;22;20019;-87
2023/08/24 09:12:14;;;;;;;7.47;2.90;;;33.40;6.10;;;;;;6283939;22;20023;-87
2023/08/24 09:15:06;;;;;;;4.80;2.90;;;33.80;1.00;;;;;;6304642;22;20023;-88
2023/08/24 09:17:56;;;;;;;5.82;3.20;;;33.70;1.00;;;;;;6284634;22;20294;-89
2023/08/24 09:20:44;;;;;;;8.75;3.38;;;33.60;1.00;;;;;;6304389;22;20031;-86
2023/08/24 09:23:33;;;;;;;5.35;2.90;;;33.60;1.00;;;;;;6280907;22;20114;-86
2023/08/24 09:26:34;;;;;;;3.45;2.80;;;33.40;1.00;;;;;;6282740;22;20319;-88
2023/08/24 09:29:23;;;;;;;9.73;3.40;;;33.20;1.00;;;;;;6306442;22;20023;-85
2023/08/24 09:32:13;;;;;;;6.30;3.60;;;33.00;1.00;;;;;;6282772;22;20019;-86
2023/08/24 09:35:08;;;;;;;11.77;3.47;;;33.10;1.00;;;;;;6303175;22;20102;-86
2023/08/24 09:37:59;;;;;;;4.70;2.58;;;33.20;1.00;;;;;;6284871;22;20023;-88
2023/08/24 09:40:52;;;;;;;7.05;3.58;;;33.60;1.00;;;;;;6289988;22;20031;-87
2023/08/24 09:43:39;;;;;;;;;;;34.00;1.00;;;;;;6293273;22;20375;-88
2023/08/24 09:46:29;;;;;;;11.63;3.58;;;34.60;1.00;;;;;;6314677;22;19914;-84
2023/08/24 09:49:18;;;;;;;4.43;3.05;;;35.00;1.00;;;;;;6316946;22;20066;-86
2023/08/24 09:52:24;;;;;;;5.70;3.13;;;35.00;1.00;;;;;;6331942;22;20061;-86
2023/08/24 09:59:27;;;;;;;9.13;3.80;;;34.60;1.00;;;;;;6322323;22;20007;-89
2023/08/24 10:27:23;;;;;;;9.25;3.72;;;36.20;1.00;;;;;;6094477;23;20022;-85
2023/08/24 10:30:15;;;;;;;8.60;3.83;;;36.70;1.00;;;;;;6163469;22;20025;-85
2023/08/24 10:33:03;;;;;;;;;;;36.40;1.00;;;;;;6304012;22;20679;-85
2023/08/24 10:35:55;;;;;;;9.45;3.88;;;37.00;1.00;;;;;;6303689;22;19926;-84
2023/08/24 10:38:43;;;;;;;6.15;3.70;;;36.80;1.00;;;;;;6283216;22;20038;-85
2023/08/24 10:41:55;;;;;;;5.65;3.75;;;36.40;1.00;;;;;;6301081;22;20038;-84
2023/08/24 10:44:49;;;;;;;10.73;4.00;;;36.00;1.00;;;;;;6282712;22;20050;-85
2023/08/24 10:47:45;;;;;;;6.57;3.95;;;35.30;1.00;;;;;;6305543;22;20023;-83
2023/08/24 10:50:34;;;;;;;5.63;4.13;;;36.10;1.00;;;;;;6282420;22;20033;-89
2023/08/24 10:53:51;;;;;;;10.32;4.03;;;36.50;1.00;;;;;;6281349;22;20019;-86
2023/08/24 10:56:47;;;;;;;8.15;3.47;;;37.00;1.00;;;;;;6256815;22;20023;-89
2023/08/24 10:59:42;;;;;;;7.57;4.00;;;36.90;1.00;;;;;;6306276;22;20074;-88
2023/08/24 11:02:48;;;;;;;7.82;4.00;;;37.30;1.00;;;;;;6304409;22;20045;-90
2023/08/24 11:05:36;;;;;;;9.07;3.97;;;37.80;1.00;;;;;;6308228;22;20078;-91
2023/08/24 11:08:45;;;;;;;7.30;3.90;;;38.60;1.00;;;;;;6282655;22;20244;-89
2023/08/24 11:11:33;;;;;;;9.40;4.05;;;38.60;1.00;;;;;;6281843;22;20029;-86
2023/08/24 11:14:25;;;;;;;6.55;2.97;;;38.90;1.00;;;;;;6302948;22;20107;-85
2023/08/24 11:17:24;;;;;;;8.57;3.50;;;39.00;1.00;;;;;;6282454;22;20410;-86
2023/08/24 11:20:16;;;;;;;10.32;3.83;;;39.30;1.00;;;;;;6304551;22;20023;-85
2023/08/24 11:23:07;;;;;;;8.00;3.80;;;39.20;1.00;;;;;;6301776;22;20027;-85
2023/08/24 11:25:58;;;;;;;7.07;4.13;;;39.50;1.00;;;;;;6281428;22;20083;-87
2023/08/24 11:28:57;;;;;;;9.68;4.85;;;39.90;1.00;;;;;;6303713;22;20435;-86
2023/08/24 11:31:45;;;;;;;12.18;4.25;;;39.90;1.00;;;;;;6281921;22;20023;-89
2023/08/24 11:34:34;;;;;;;9.30;5.13;;;39.40;1.00;;;;;;6304240;22;20023;-85
2023/08/24 11:37:28;;;;;;;8.50;5.53;;;37.50;1.00;;;;;;6283480;22;20023;-88
2023/08/24 11:40:20;;;;;;;8.88;4.30;;;36.20;1.00;;;;;;6305257;22;20030;-85
2023/08/24 11:43:12;;;;;;;10.50;5.25;;;36.90;1.00;;;;;;6282357;22;20034;-86
2023/08/24 11:46:02;;;;;;;8.88;3.80;;;37.10;1.00;;;;;;6284879;22;20023;-87
2023/08/24 11:48:49;;;;;;;13.25;4.45;;;37.30;1.00;;;;;;6304439;22;20023;-87
2023/08/24 11:51:39;;;;;;;8.05;4.25;;;38.40;1.00;;;;;;6285073;22;20026;-88
2023/08/24 11:54:33;;;;;;;10.15;4.47;;;38.80;1.00;;;;;;6283689;22;20023;-88
2023/08/24 11:57:22;;;;;;;8.52;4.18;;;38.30;1.00;;;;;;6273426;22;20039;-86
2023/08/24 12:00:13;;;;;;;8.50;4.20;;;38.70;1.00;;;;;;6253241;22;20023;-87
2023/08/24 12:03:01;;;;;;;7.57;3.92;;;39.70;1.00;;;;;;6275054;22;20103;-88
2023/08/24 12:05:52;;;;;;;9.20;4.25;;;39.50;1.00;;;;;;6276342;22;20035;-93
2023/08/24 12:08:46;;;;;;;8.07;4.90;;;40.10;1.00;;;;;;6256529;22;20110;-88
2023/08/24 12:11:38;;;;;;;8.45;4.05;;;40.50;1.00;;;;;;6252343;22;20028;-90
2023/08/24 12:14:28;;;;;;;7.82;4.07;;;40.80;1.00;;;;;;6255856;22;20105;-84
2023/08/24 12:17:22;;;;;;;14.68;4.07;;;40.30;1.00;;;;;;6252083;22;20128;-89
2023/08/24 12:20:45;;;;;;;7.93;4.40;;;41.00;1.00;;;;;;6251799;22;20027;-90
2023/08/24 12:24:27;;;;;;;9.07;4.03;;;41.00;1.00;;;;;;6255233;22;20076;-90
2023/08/24 12:27:26;;;;;;;12.23;4.50;;;40.10;1.00;;;;;;6264205;22;20086;-86
2023/08/24 12:30:16;;;;;;;9.38;4.28;;;38.90;1.00;;;;;;6268487;22;20030;-85
2023/08/24 12:33:04;;;;;;;12.85;4.55;;;38.20;1.00;;;;;;6262325;22;20091;-86
2023/08/24 12:35:55;;;;;;;6.72;3.75;;;38.60;1.00;;;;;;6274846;22;20027;-85
2023/08/24 12:38:45;;;;;;;9.52;4.13;;;39.30;1.00;;;;;;6276721;22;20028;-86
2023/08/24 12:41:34;;;;;;;12.17;4.37;;;39.90;1.00;;;;;;6252409;22;20031;-88
2023/08/24 12:44:26;;;;;;;11.20;4.20;;;41.20;1.00;;;;;;6274195;22;20273;-91
2023/08/24 12:47:17;;;;;;;11.07;4.25;;;40.80;1.00;;;;;;6255065;22;20407;-89
2023/08/24 12:50:09;;;;;;;11.38;4.25;;;40.60;1.00;;;;;;6255832;22;20131;-90
2023/08/24 12:52:59;;;;;;;9.00;4.45;;;40.20;1.00;;;;;;6252553;22;20296;-89
2023/08/24 12:55:54;;;;;;;8.95;4.15;;;39.70;1.00;;;;;;6256295;22;20330;-89
2023/08/24 12:58:41;;;;;;;10.48;4.43;;;39.60;1.00;;;;;;6275522;22;20094;-89
2023/08/24 13:01:28;;;;;;;8.38;5.13;;;39.10;1.00;;;;;;6252035;22;20023;-91
2023/08/24 13:04:20;;;;;;;8.25;4.55;;;38.40;1.00;;;;;;6254152;22;20489;-89
2023/08/24 13:07:09;;;;;;;10.15;4.60;;;38.80;1.00;;;;;;6255384;22;20047;-88
2023/08/24 13:09:58;;;;;;;14.05;4.32;;;39.10;1.00;;;;;;6275214;22;20035;-89
2023/08/24 13:12:48;;;;;;;11.63;4.18;;;38.80;1.00;;;;;;6251808;22;20035;-89
2023/08/24 13:15:35;;;;;;;9.07;4.13;;;38.90;1.00;;;;;;6253054;22;20123;-88
2023/08/24 13:18:25;;;;;;;13.02;4.45;;;38.50;1.00;;;;;;6252241;22;20027;-86
2023/08/24 13:21:15;;;;;;;13.13;4.32;;;37.60;1.00;;;;;;6250991;22;20034;-84
2023/08/24 13:24:07;;;;;;;10.38;4.38;;;36.80;1.00;;;;;;6274963;22;20031;-87
2023/08/24 13:26:54;;;;;;;7.68;4.18;;;36.80;1.00;;;;;;6254373;22;20016;-85
2023/08/24 13:29:44;;;;;;;11.02;4.68;;;37.90;1.00;;;;;;6251448;22;20098;-85
2023/08/24 13:32:34;;;;;;;9.38;4.40;;;37.90;1.00;;;;;;6270314;22;20023;-88
2023/08/24 13:35:22;;;;;;;10.02;3.75;;;38.30;1.00;;;;;;6250858;22;20102;-87
2023/08/24 13:38:12;;;;;;;10.50;4.78;;;39.60;1.00;;;;;;6277184;22;20028;-92
2023/08/24 13:41:11;;;;;;;8.93;4.18;;;37.80;1.00;;;;;;6252052;22;20116;-91
2023/08/24 13:44:14;;;;;;;12.50;4.60;;;36.40;1.00;;;;;;6274438;22;20026;-91
2023/08/24 13:47:22;;;;;;;9.10;4.70;;;35.10;1.00;;;;;;6256541;22;20039;-86
2023/08/24 13:50:14;;;;;;;11.57;4.38;;;34.90;1.00;;;;;;6251947;22;20028;-88
2023/08/24 13:53:03;;;;;;;10.48;4.38;;;36.00;1.00;;;;;;6273500;22;20027;-88
2023/08/24 13:55:51;;;;;;;12.90;4.88;;;36.40;1.00;;;;;;6279704;22;20034;-88
2023/08/24 13:58:41;;;;;;;12.07;4.22;;;36.70;1.00;;;;;;6265632;22;20118;-88
2023/08/24 14:01:28;;;;;;;14.50;4.20;;;36.30;1.00;;;;;;6287336;22;20023;-86
2023/08/24 14:04:23;;;;;;;15.80;4.53;;;36.40;1.00;;;;;;6274515;22;20035;-85
2023/08/24 14:07:15;;;;;;;13.85;4.90;;;35.50;1.00;;;;;;6276115;22;20032;-85
2023/08/24 14:10:50;;;;;;;;;;;;;;;;;;;;;
2023/08/24 14:13:46;;;;;;;13.60;4.30;;;34.60;1.00;;;;;;6286248;22;20035;-88
2023/08/24 14:20:44;;;;;;;;;;;;;;;;;;;;;
2023/08/24 14:24:37;;;;;;;;;;;;;;;;;;;;;
2023/08/24 14:27:54;;;;;;;;;;;;;;;;;;;;;
2023/08/24 14:31:01;;;;;;;15.20;5.07;;;33.50;1.00;;;;;;6231464;22;20085;-90
2023/08/24 14:34:27;;;;;;;11.27;4.30;;;33.10;1.00;;;;;;6261580;22;20116;-90
2023/08/24 14:37:46;;;;;;;16.15;4.22;;;32.90;1.00;;;;;;6256882;22;20046;-90
2023/08/24 14:44:41;;;;;;;9.80;4.30;;;32.50;1.00;;;;;;6274315;22;20077;-91
2023/08/24 14:47:46;;;;;;;;;;;;;;;;;;;;;
2023/08/24 14:51:01;;;;;;;11.60;5.07;;;32.50;1.00;;;;;;6276074;22;20026;-89
2023/08/24 14:53:48;;;;;;;14.88;4.53;;;32.40;1.00;;;;;;6254431;22;20085;-87
2023/08/24 14:56:49;;;;;;;15.07;4.85;;;32.20;1.00;;;;;;6272337;22;20080;-86
2023/08/24 14:59:37;;;;;;;17.70;4.85;;;32.00;1.00;;;;;;6249491;22;20047;-88
2023/08/24 15:02:32;;;;;;;12.95;5.07;;;31.70;1.00;;;;;;6273326;22;20020;-90
2023/08/24 15:05:22;;;;;;;15.13;6.65;;;30.70;1.00;;;;;;6251828;22;20407;-84
2023/08/24 15:08:11;;;;;;;15.30;8.00;;;29.00;1.00;;;;;;6253494;22;20038;-85
2023/08/24 15:11:01;;;;;;;21.20;13.45;;;28.10;1.00;;;;;;6251669;22;20081;-88
2023/08/24 15:13:56;;;;;;;15.10;5.72;;;27.60;5.60;;;;;;6255643;22;20027;-90
2023/08/24 15:16:44;;;;;;;8.95;6.18;;;27.60;24.20;;;;;;6250908;22;20310;-90
2023/08/24 15:19:38;;;;;;;11.82;6.05;;;27.60;36.60;;;;;;6252709;22;20430;-86
2023/08/24 15:22:28;;;;;;;10.82;5.53;;;27.60;44.10;;;;;;6271085;22;20318;-91
2023/08/24 15:25:17;;;;;;;13.47;5.30;;;27.60;44.10;;;;;;6253851;22;20169;-88
2023/08/24 15:28:07;;;;;;;10.82;4.82;;;27.50;51.00;;;;;;6248826;22;20249;-87
2023/08/24 15:30:58;;;;;;;9.27;4.78;;;27.30;70.30;;;;;;6251453;22;20015;-85
2023/08/24 15:33:45;;;;;;;8.07;4.57;;;27.20;97.00;;;;;;6250849;22;20335;-86
2023/08/24 15:36:35;;;;;;;10.02;4.35;;;27.10;99.90;;;;;;6250961;22;20149;-84
2023/08/24 15:39:23;;;;;;;8.02;3.88;;;26.90;96.10;;;;;;6251901;22;20027;-83
2023/08/24 15:42:14;;;;;;;9.38;3.47;;;27.00;99.90;;;;;;6251620;22;20035;-84
2023/08/24 15:45:02;;;;;;;6.80;4.13;;;27.10;99.80;;;;;;6273881;22;20019;-83
2023/08/24 15:47:49;;;;;;;6.07;3.30;;;27.00;99.90;;;;;;6252182;22;20102;-84